Terminal Aerodrome Forecast
Issued by NWS

Home | Current Version | Previous Version | Text Only | Print | Product List | Glossary On
Versions: 1 2 3 4 5 6 7 8 9 10 11 12 13
000
FTUS44 KOUN 251129
TAFWWR
TAF
KWWR 251129Z 2512/2612 05009KT P6SM SCT060 BKN120
     FM251500 07006KT P6SM SCT060 BKN120
     FM252100 12006KT P6SM SCT060 BKN120
      TEMPO 2521/2601 3SM TSRA BKN050CB
     FM260100 14008KT P6SM BKN060 OVC100 PROB30 2601/2605 3SM TSRA
      BKN050CB
      AMD NOT SKED=

USA.gov is the U.S. government's official web portal to all federal, state and local government web resources and services.